Weather observations for the past three days for
Leesburg / Godfrey
Imperial (Metric)
Date Time (edt) Wind (mph) Vis. (mi.) Weather Sky Cond. Temperature (ºF) Relative Humidity Wind Chill (°F) Heat Index (°F) Pressure Precipitation (in)
Air Dwpt 6 hour altimeter (in) sea level (mb) 1 hr 3 hr 6 hr
Max. Min.
02 12:15 Calm 10.00 Fair CLR 87.8 77 70% 100 30.1 0.0
02 11:55 Calm 10.00 Fair CLR 87.8 77 70% 100 30.09 0.0
02 11:35 N 5 10.00 Fair CLR 86 75.2 70% 95 30.1 0.0
02 11:15 Calm 10.00 Fair CLR 86 75.2 70% 95 30.1 0.0
02 10:55 Calm 10.00 Fair CLR 84.2 75.2 74% 92 30.09 0.0
02 10:35 Calm 10.00 Fair CLR 82.4 73.4 74% 88 30.09 0.0
02 10:15 Calm 10.00 Fair CLR 82.4 73.4 74% 88 30.09 0.0
02 09:55 Calm 10.00 Fair CLR 80.6 73.4 79% 85 30.1 0.0
02 09:35 E 3 10.00 Fair CLR 80.6 73.4 79% 85 30.09 0.0
02 09:15 Calm 10.00 Fair CLR 78.8 73.4 84% 82 30.09 0.0
02 08:35 Calm 10.00 Fair CLR 78.8 73.4 84% 82 30.09 0.0
02 08:15 Calm 10.00 Fair CLR 77 73.4 89% 78 30.08 0.0
02 07:55 Calm 10.00 Fair CLR 75.2 71.6 89% 75 30.08 0.0
02 07:35 Calm 10.00 Fair CLR 73.4 71.6 94% 30.08 0.0
02 07:15 Calm 10.00 Fair CLR 73.4 71.6 94% 30.09 0.0
02 06:55 Calm 10.00 Fair CLR 73.4 71.6 94% 30.09 0.0
02 06:35 Calm 10.00 Thunderstorm in Vicinity SCT090 73.4 71.6 94% 30.09 0.0
02 06:15 Calm 10.00 Mostly Cloudy SCT048 BKN090 73.4 71.6 94% 30.08 0.0
02 05:55 Calm 10.00 Partly Cloudy SCT048 SCT090 73.4 71.6 94% 30.08 0.0
02 05:35 Calm 10.00 Partly Cloudy SCT090 73.4 71.6 94% 30.07 0.0
02 05:15 Calm 10.00 Partly Cloudy SCT090 73.4 71.6 94% 30.08 0.0
02 04:55 Calm 10.00 Partly Cloudy SCT075 73.4 71.6 94% 30.08 0.0
02 04:35 Calm 10.00 Partly Cloudy SCT075 75.2 71.6 89% 75 30.07 0.0
02 04:15 Calm 10.00 Partly Cloudy SCT075 77 71.6 83% 78 30.07 0.0
02 03:55 Calm 10.00 Fair CLR 77 71.6 83% 78 30.06 0.0
02 03:35 Calm 10.00 Fair CLR 75.2 71.6 89% 75 30.06 0.0
02 03:15 NW 5 10.00 Fair CLR 77 71.6 83% 78 30.06 0.0
02 02:55 Calm 10.00 Fair CLR 77 71.6 83% 78 30.06 0.0
02 02:35 Calm 10.00 Fair CLR 77 71.6 83% 78 30.06 0.0
02 02:15 NE 5 10.00 Fair CLR 77 71.6 83% 78 30.06 0.0
02 01:55 N 6 10.00 Fair CLR 78.8 71.6 79% 82 30.06 0.0
02 01:35 N 9 10.00 Partly Cloudy SCT060 78.8 71.6 79% 82 30.07 0.0
02 01:15 N 8 10.00 Mostly Cloudy BKN060 80.6 69.8 70% 84 30.07 0.0
02 00:55 Calm 10.00 Fair CLR 80.6 69.8 70% 84 30.05 0.0
02 00:35 NW 3 10.00 Fair CLR 80.6 71.6 74% 85 30.03 0.0
02 00:15 W 15 G 20 10.00 Fair CLR 82.4 71.6 70% 87 30.02 0.0
01 23:55 W 13 10.00 Fair CLR 82.4 71.6 70% 87 30.03 0.0
01 23:35 NW 9 10.00 Fair CLR 80.6 71.6 74% 85 30.02 0.0
01 23:15 W 10 10.00 Fair CLR 80.6 71.6 74% 85 30.02 0.0
01 22:55 W 10 10.00 Partly Cloudy SCT070 82.4 71.6 70% 87 30.01 0.0
01 22:35 W 10 10.00 Partly Cloudy SCT070 82.4 71.6 70% 87 30.02 0.0
01 22:15 W 8 10.00 Fair CLR 82.4 71.6 70% 87 30.02 0.0
01 21:55 W 10 10.00 Fair CLR 82.4 71.6 70% 87 30.01 0.0
01 21:35 W 8 10.00 Fair CLR 82.4 73.4 74% 88 30.01 0.0
01 21:15 W 10 10.00 Fair CLR 84.2 73.4 70% 91 30.01 0.0
01 20:55 W 10 10.00 Fair CLR 86 73.4 66% 93 29.99 0.0
01 20:35 W 10 10.00 Fair CLR 86 73.4 66% 93 29.98 0.0
01 20:15 W 6 10.00 Fair CLR 84.2 73.4 70% 91 29.98 0.0
01 19:55 W 7 10.00 Fair CLR 86 73.4 66% 93 29.96 0.0
01 19:35 W 9 10.00 Fair CLR 87.8 73.4 62% 96 29.96 0.0
01 19:15 W 10 G 16 10.00 Fair CLR 87.8 73.4 62% 96 29.97 0.0
01 18:55 W 6 10.00 Fair CLR 89.6 73.4 59% 98 29.97 0.0
01 18:35 W 9 10.00 Fair CLR 89.6 75.2 63% 100 29.97 0.0
01 18:15 W 12 10.00 Fair CLR 89.6 75.2 63% 100 29.97 0.0
01 17:55 W 12 10.00 Partly Cloudy SCT095 91.4 75.2 59% 103 29.97 0.0
01 17:35 W 9 10.00 Partly Cloudy SCT085 89.6 73.4 59% 98 29.97 0.0
01 17:15 W 8 10.00 Fair CLR 93.2 73.4 53% 103 29.97 0.0
01 16:55 SW 7 10.00 Fair CLR 95 77 56% 110 29.97 0.0
01 16:35 SW 7 10.00 Fair CLR 93.2 77 59% 107 29.97 0.0
01 16:15 SW 7 10.00 Fair CLR 91.4 77 63% 105 29.98 0.0
01 15:55 SW 6 10.00 Fair CLR 91.4 77 63% 105 29.98 0.0
01 15:35 SW 9 10.00 Fair CLR 93.2 77 59% 107 30 0.0
01 15:15 SW 9 10.00 Partly Cloudy SCT110 93.2 77 59% 107 30 0.0
01 14:55 W 7 G 16 10.00 Mostly Cloudy BKN110 89.6 77 67% 103 30.01 0.0
01 14:35 SW 8 10.00 Overcast OVC100 89.6 77 67% 103 30.02 0.0
01 14:15 W 9 G 17 10.00 Mostly Cloudy SCT045 BKN110 89.6 77 67% 103 30.02 0.0
01 13:55 W 6 10.00 Partly Cloudy SCT047 91.4 77 63% 105 30.01 0.0
01 13:35 SW 9 10.00 Fair CLR 89.6 77 67% 103 30.02 0.0
01 13:15 W 12 10.00 Fair CLR 89.6 77 67% 103 30.02 0.0
01 12:55 W 9 10.00 Fair CLR 87.8 77 70% 100 30.03 0.0
01 12:35 W 9 10.00 Fair CLR 87.8 77 70% 100 30.04 0.0
01 12:15 W 9 10.00 Fair CLR 89.6 77 67% 103 30.04 0.0
01 11:55 W 9 10.00 Fair CLR 87.8 77 70% 100 30.04 0.0
01 11:35 W 8 10.00 Fair CLR 89.6 77 67% 103 30.05 0.0
01 11:15 W 7 10.00 Fair CLR 87.8 77 70% 100 30.05 0.0
01 10:55 W 9 10.00 Fair CLR 87.8 77 70% 100 30.06 0.0
01 10:35 W 9 10.00 Fair CLR 87.8 77 70% 100 30.06 0.0
01 10:15 SW 7 10.00 Fair CLR 86 77 75% 97 30.06 0.0
01 09:55 SW 5 10.00 Fair CLR 82.4 75.2 79% 89 30.06 0.0
01 09:35 SW 5 10.00 Fair CLR 80.6 75.2 84% 86 30.06 0.0
01 09:15 SW 5 10.00 Fair CLR 78.8 73.4 84% 82 30.06 0.0
01 08:55 W 3 10.00 Fair CLR 78.8 73.4 84% 82 30.07 0.0
01 08:35 W 3 10.00 Fair CLR 78.8 73.4 84% 82 30.08 0.0
01 08:15 Calm 10.00 Fair CLR 77 75.2 94% 78 30.08 0.0
01 07:55 W 3 10.00 Fair CLR 73.4 73.4 100% 30.07 0.0
01 07:35 SW 5 10.00 Partly Cloudy SCT100 75.2 73.4 94% 74 30.06 0.0
01 07:15 W 6 10.00 Fair CLR 73.4 73.4 100% 30.06 0.0
01 06:35 W 3 10.00 Fair CLR 73.4 73.4 100% 30.05 0.0
01 06:15 W 6 10.00 Fair CLR 73.4 73.4 100% 30.05 0.0
01 05:55 Calm 10.00 Fair CLR 73.4 73.4 100% 30.05 0.0
01 05:35 SW 6 10.00 Fair CLR 75.2 73.4 94% 74 30.05 0.0
01 05:15 SW 6 10.00 Fair CLR 75.2 73.4 94% 74 30.05 0.0
01 04:55 SW 3 10.00 Fair CLR 73.4 73.4 100% 30.06 0.0
01 04:35 W 3 10.00 Fair CLR 71.6 71.6 100% 30.06 0.0
01 04:15 Calm 10.00 Fair CLR 73.4 73.4 100% 30.06 0.0
01 03:55 SW 3 10.00 Fair CLR 73.4 73.4 100% 30.05 0.0
01 03:35 Calm 10.00 Fair CLR 75.2 73.4 94% 74 30.06 0.0
01 03:15 Calm 10.00 Partly Cloudy SCT120 75.2 73.4 94% 74 30.06 0.0
01 02:55 Calm 10.00 Partly Cloudy SCT120 77 73.4 89% 78 30.07 0.0
01 02:35 SW 3 10.00 Partly Cloudy SCT120 75.2 73.4 94% 74 30.07 0.0
01 02:15 SW 5 10.00 Partly Cloudy SCT120 73.4 73.4 100% 30.08 0.0
01 01:55 Calm 10.00 Fair CLR 73.4 73.4 100% 30.08 0.0
01 01:35 SW 5 10.00 Partly Cloudy SCT110 77 75.2 94% 78 30.08 0.0
01 01:15 SW 5 10.00 Fair CLR 77 75.2 94% 78 30.08 0.0
01 00:55 SW 6 10.00 Partly Cloudy SCT120 77 75.2 94% 78 30.08 0.0
01 00:35 SW 6 10.00 Mostly Cloudy BKN120 77 75.2 94% 78 30.09 0.0
01 00:15 SW 5 10.00 Partly Cloudy SCT120 75.2 75.2 100% 73 30.1 0.0
31 23:55 SW 5 10.00 Partly Cloudy SCT080 SCT120 77 75.2 94% 78 30.1 0.0
31 23:35 SW 3 10.00 Mostly Cloudy BKN080 77 75.2 94% 78 30.1 0.0
31 23:15 SW 3 10.00 Mostly Cloudy BKN080 75.2 75.2 100% 73 30.1 0.0
31 22:55 Calm 10.00 Partly Cloudy SCT080 73.4 73.4 100% 30.1 0.0
31 22:35 Calm 10.00 Partly Cloudy SCT080 75.2 75.2 100% 73 30.1 0.0
31 22:15 Calm 10.00 Fair CLR 73.4 73.4 100% 30.1 0.0
31 21:55 Calm 10.00 Fair CLR 77 75.2 94% 78 30.1 0.0
31 21:35 Calm 10.00 Partly Cloudy SCT100 77 75.2 94% 78 30.1 0.0
31 21:15 Calm 10.00 Mostly Cloudy BKN100 77 75.2 94% 78 30.09 0.0
31 20:55 SW 3 10.00 Partly Cloudy SCT110 77 75.2 94% 78 30.09 0.0
31 20:35 SW 5 10.00 Partly Cloudy SCT110 78.8 75.2 89% 82 30.09 0.0
31 20:15 SW 3 10.00 Partly Cloudy SCT120 78.8 75.2 89% 82 30.08 0.0
31 19:55 SW 6 10.00 Mostly Cloudy BKN110 78.8 73.4 84% 82 30.08 0.0
31 19:35 SW 6 10.00 Mostly Cloudy BKN110 80.6 75.2 84% 86 30.08 0.0
31 19:15 Calm 10.00 Partly Cloudy SCT120 80.6 75.2 84% 86 30.08 0.0
31 18:55 SW 3 10.00 Partly Cloudy SCT120 80.6 77 89% 87 30.08 0.0
31 18:35 Calm 10.00 Mostly Cloudy BKN120 82.4 75.2 79% 89 30.09 0.0
31 18:15 SW 3 10.00 Overcast OVC120 82.4 77 84% 91 30.1 0.0
31 17:55 Calm 10.00 Mostly Cloudy BKN120 82.4 75.2 79% 89 30.1 0.0
31 17:35 Calm 10.00 Mostly Cloudy BKN120 82.4 75.2 79% 89 30.1 0.0
31 17:15 Calm 10.00 Fair CLR 82.4 77 84% 91 30.1 0.0
31 16:55 W 3 10.00 Fair CLR 82.4 77 84% 91 30.1 0.0
31 16:35 W 3 10.00 Light Rain SCT033 BKN050 BKN070 82.4 77 84% 91 30.11 0.0
31 16:15 Calm 10.00 Mostly Cloudy SCT035 SCT041 BKN085 82.4 77 84% 91 30.11 0.0
31 15:55 W 3 10.00 Fair CLR 82.4 77 84% 91 30.11 0.0
31 15:35 Calm 10.00 Fair CLR 82.4 75.2 79% 89 30.11 0.0
31 15:15 W 3 10.00 Partly Cloudy SCT100 82.4 75.2 79% 89 30.12 0.0
31 14:55 Calm 10.00 Partly Cloudy SCT100 82.4 75.2 79% 89 30.13 0.0
31 14:35 Calm 10.00 Fair CLR 82.4 73.4 74% 88 30.13 0.0
31 14:15 Calm 10.00 Partly Cloudy SCT029 84.2 75.2 74% 92 30.12 0.0
31 13:55 S 3 10.00 Partly Cloudy SCT029 SCT039 84.2 75.2 74% 92 30.13 0.0
31 13:35 Calm 10.00 Partly Cloudy SCT029 SCT039 SCT110 82.4 73.4 74% 88 30.13 0.0
31 13:15 SE 3 10.00 Fair CLR 82.4 73.4 74% 88 30.13 0.0
31 12:55 Calm 10.00 Partly Cloudy SCT100 82.4 73.4 74% 88 30.13 0.0
31 12:35 Calm 10.00 Partly Cloudy SCT023 SCT060 SCT100 82.4 73.4 74% 88 30.14 0.0
31 12:15 NE 5 10.00 Mostly Cloudy SCT023 BKN060 BKN100 80.6 73.4 79% 85 30.15 0.0
31 11:55 Calm 10.00 Overcast SCT019 SCT025 OVC100 80.6 73.4 79% 85 30.15 0.0
31 11:35 E 3 10.00 Mostly Cloudy BKN019 BKN024 BKN100 80.6 75.2 84% 86 30.15 0.0
31 11:15 N 5 10.00 Partly Cloudy SCT017 78.8 73.4 84% 82 30.15 0.0
31 10:55 NE 3 10.00 Fair CLR 78.8 73.4 84% 82 30.15 0.0
31 10:35 NE 6 10.00 Partly Cloudy SCT100 78.8 73.4 84% 82 30.15 0.0
31 10:15 N 6 10.00 Partly Cloudy SCT100 77 73.4 89% 78 30.15 0.0
31 09:55 N 5 10.00 Partly Cloudy SCT100 SCT120 77 71.6 83% 78 30.15 0.0
31 09:35 N 3 10.00 Partly Cloudy SCT110 75.2 71.6 89% 75 30.15 0.0
31 09:15 N 6 10.00 Partly Cloudy SCT120 73.4 71.6 94% 30.15 0.0
31 08:55 N 6 10.00 Mostly Cloudy BKN120 73.4 71.6 94% 30.14 0.0
31 08:35 N 6 10.00 Partly Cloudy SCT120 73.4 71.6 94% 30.15 0.0
31 08:15 N 6 10.00 Mostly Cloudy BKN120 73.4 71.6 94% 30.14 0.0
31 07:55 N 7 10.00 Mostly Cloudy BKN120 71.6 71.6 100% 30.14 0.0
31 07:35 N 5 10.00 Partly Cloudy SCT120 71.6 71.6 100% 30.13 0.0
31 07:15 N 5 10.00 Fair CLR 71.6 71.6 100% 30.13 0.0
31 06:55 N 3 10.00 Fair CLR 71.6 71.6 100% 30.12 0.0
31 06:35 NW 5 10.00 Fair CLR 69.8 69.8 100% 30.12 0.0
31 06:15 N 5 10.00 Partly Cloudy SCT120 69.8 69.8 100% 30.11 0.0
31 05:55 N 6 10.00 Partly Cloudy SCT120 69.8 69.8 100% 30.11 0.0
31 05:35 NW 6 10.00 Fair CLR 69.8 69.8 100% 30.11 0.0
31 05:15 NW 5 10.00 Fair CLR 69.8 69.8 100% 30.11 0.0
31 04:55 NW 3 10.00 Fair CLR 69.8 69.8 100% 30.1 0.0
31 04:35 Calm 10.00 Fair CLR 69.8 69.8 100% 30.11 0.0
31 04:15 N 3 10.00 Fair CLR 69.8 69.8 100% 30.11 0.0
31 03:55 Calm 10.00 Fair CLR 69.8 69.8 100% 30.11 0.0
31 03:35 NE 3 10.00 Fair CLR 69.8 69.8 100% 30.1 0.0
31 03:15 Calm 10.00 Fair CLR 69.8 69.8 100% 30.1 0.0
31 02:55 Calm 10.00 Fair CLR 69.8 69.8 100% 30.1 0.0
31 02:35 E 3 10.00 Fair CLR 69.8 69.8 100% 30.1 0.0
31 02:15 Calm 10.00 Fair CLR 69.8 69.8 100% 30.1 0.0
31 01:55 Calm 10.00 Fair CLR 69.8 69.8 100% 30.1 0.0
31 01:35 Calm 10.00 Fair CLR 69.8 69.8 100% 30.1 0.0
31 01:15 Calm 10.00 Fair CLR 69.8 69.8 100% 30.11 0.0
31 00:55 Calm 10.00 Fair CLR 69.8 69.8 100% 30.11 0.0
31 00:35 Calm 10.00 Fair CLR 71.6 71.6 100% 30.11 0.0
31 00:15 Calm 10.00 Fair CLR 71.6 71.6 100% 30.12 0.0
30 23:55 Calm 10.00 Fair CLR 69.8 69.8 100% 30.12 0.0
30 23:35 Calm 10.00 Fair CLR 71.6 71.6 100% 30.12 0.0
30 23:15 Calm 10.00 Fair CLR 69.8 69.8 100% 30.13 0.0
30 22:55 SW 3 10.00 Fair CLR 71.6 71.6 100% 30.13 0.0
30 22:35 Calm 10.00 Fair CLR 69.8 69.8 100% 30.13 0.0
30 22:15 Calm 10.00 Fair CLR 69.8 69.8 100% 30.13 0.0
30 21:55 SW 5 10.00 Fair CLR 69.8 69.8 100% 30.13 0.0
30 21:35 Calm 10.00 Fair CLR 69.8 69.8 100% 30.14 0.0
30 21:15 Calm 10.00 Fair CLR 69.8 69.8 100% 30.14 0.0
30 20:55 Calm 10.00 Fair CLR 69.8 69.8 100% 30.13 0.0
30 20:35 Calm 10.00 Partly Cloudy SCT120 71.6 71.6 100% 30.12 0.0
30 20:15 S 5 10.00 Overcast OVC120 71.6 71.6 100% 30.11 0.0
30 19:55 S 7 10.00 Thunderstorm OVC110 71.6 71.6 100% 30.1 0.0 0.35
30 19:35 S 10 10.00 Thunderstorm SCT075 SCT090 BKN110 73.4 73.4 100% 30.11 0.0 0.35
30 19:15 SW 6 3.00 Thunderstorm Rain SCT008 BKN021 OVC100 71.6 71.6 100% 30.1 0.0 0.35
30 18:55 W 24 G 31 1.25 Thunderstorm Heavy Rain in Vicinity and Breezy BKN013 BKN023 OVC039 73.4 73.4 100% 30.13 0.0 0.43
30 18:35 W 3 10.00 Overcast SCT046 BKN049 OVC100 82.4 73.4 74% 88 30.1 0.0
30 18:15 SW 5 10.00 Mostly Cloudy SCT049 SCT070 BKN100 82.4 73.4 74% 88 30.1 0.0
30 17:55 SW 5 10.00 Partly Cloudy SCT070 84.2 73.4 70% 91 30.09 0.0
30 17:35 SW 8 10.00 Fair CLR 87.8 73.4 62% 96 30.09 0.0
30 17:15 S 5 10.00 Fair CLR 87.8 73.4 62% 96 30.09 0.0
30 16:55 SE 6 10.00 Partly Cloudy SCT110 87.8 73.4 62% 96 30.09 0.0
30 16:35 Calm 10.00 Overcast SCT080 BKN100 OVC120 86 73.4 66% 93 30.1 0.0
30 16:15 SW 5 10.00 Overcast SCT075 OVC100 84.2 73.4 70% 91 30.11 0.0
30 15:55 S 7 10.00 Mostly Cloudy SCT036 SCT080 BKN100 86 73.4 66% 93 30.1 0.0
30 15:35 S 9 10.00 Partly Cloudy SCT036 SCT100 SCT120 86 73.4 66% 93 30.11 0.0
30 15:15 S 7 10.00 Partly Cloudy SCT034 SCT120 86 73.4 66% 93 30.12 0.0
30 14:55 SW 7 10.00 Partly Cloudy SCT032 87.8 75.2 66% 98 30.13 0.0
30 14:35 SW 8 10.00 Mostly Cloudy BKN032 BKN120 84.2 73.4 70% 91 30.13 0.0
30 14:15 S 8 10.00 Mostly Cloudy SCT029 BKN120 82.4 73.4 74% 88 30.15 0.0
30 13:55 S 8 10.00 Partly Cloudy SCT027 SCT120 84.2 73.4 70% 91 30.16 0.0
30 13:35 S 8 10.00 Partly Cloudy SCT021 82.4 75.2 79% 89 30.17 0.0
30 13:15 S 8 10.00 Partly Cloudy SCT050 78.8 77 94% 83 30.18 0.0
30 12:55 S 7 10.00 Overcast OVC050 77 75.2 94% 78 30.19 0.0 0.01
30 12:35 S 7 10.00 Rain SCT019 SCT032 OVC055 75.2 73.4 94% 74 30.19 0.0 0.01
Date Time (edt) Wind (mph) Vis. (mi.) Weather Sky Cond. Air Dwpt Max. Min. Relative Humidity Wind Chill (°F) Heat Index (°F) altimeter (in) sea level (mb) 1 hr 3 hr 6 hr
6 hour
Temperature (ºF) Pressure Precipitation (in)